Time;durP1;ratioP1;P1;durP2;ratioP2;P2;SDS_P1;SDS_P2;PMS_P1;PMS_P2;Temp;Humidity;BMP_temperature;BMP_pressure;BME280_temperature;BME280_humidity;BME280_pressure;Samples;Min_cycle;Max_cycle;Signal;HPM_P1;HPM_P2
2021/12/20 00:00:47;;;;;;;5.07;2.22;;;4.80;95.80;;;;;;4973386;28;20518;-61
2021/12/20 00:03:14;;;;;;;5.38;1.90;;;4.90;95.80;;;;;;4974043;28;20042;-62
2021/12/20 00:05:40;;;;;;;4.32;2.38;;;4.80;95.60;;;;;;4975302;28;20600;-62
2021/12/20 00:08:05;;;;;;;2.53;1.35;;;4.80;95.80;;;;;;4972872;28;20066;-62
2021/12/20 00:10:31;;;;;;;3.92;1.85;;;4.80;95.80;;;;;;4956026;28;20058;-62
2021/12/20 00:12:57;;;;;;;4.47;1.45;;;4.80;95.80;;;;;;4958236;28;20469;-62
2021/12/20 00:15:22;;;;;;;3.25;1.30;;;4.90;95.90;;;;;;4972652;28;20063;-62
2021/12/20 00:17:48;;;;;;;4.90;1.95;;;4.80;95.70;;;;;;4960964;28;20023;-62
2021/12/20 00:20:14;;;;;;;4.35;1.25;;;4.80;95.80;;;;;;4974310;28;20037;-62
2021/12/20 00:22:40;;;;;;;4.60;1.45;;;4.90;95.80;;;;;;4973546;28;20401;-62
2021/12/20 00:25:06;;;;;;;3.88;1.63;;;4.80;95.60;;;;;;4974444;28;20106;-62
2021/12/20 00:27:32;;;;;;;3.17;1.40;;;4.80;95.70;;;;;;4962440;28;20038;-62
2021/12/20 00:29:57;;;;;;;3.10;1.50;;;4.70;95.70;;;;;;4962494;28;20039;-61
2021/12/20 00:32:23;;;;;;;5.03;1.90;;;4.70;95.80;;;;;;4969202;28;20038;-61
2021/12/20 00:34:48;;;;;;;4.85;1.50;;;4.80;95.80;;;;;;4973644;28;20101;-62
2021/12/20 00:40:20;;;;;;;4.53;1.75;;;4.80;95.80;;;;;;4973424;28;20023;-62
2021/12/20 00:40:22;;;;;;;3.83;1.75;;;4.80;95.80;;;;;;4974050;28;20046;-62
2021/12/20 00:42:59;;;;;;;2.95;1.70;;;4.80;95.80;;;;;;4972838;28;20034;-61
2021/12/20 00:45:27;;;;;;;4.38;1.58;;;4.80;95.80;;;;;;4973700;28;20040;-62
2021/12/20 00:47:53;;;;;;;3.50;1.40;;;4.80;95.80;;;;;;4969508;28;20030;-62
2021/12/20 00:50:20;;;;;;;4.10;1.65;;;4.70;95.70;;;;;;4974047;28;20501;-62
2021/12/20 00:52:46;;;;;;;2.75;1.40;;;4.60;95.70;;;;;;4972754;28;20482;-61
2021/12/20 00:55:16;;;;;;;4.72;1.95;;;4.60;95.80;;;;;;4971172;28;20035;-62
2021/12/20 00:57:45;;;;;;;3.53;1.50;;;4.60;95.70;;;;;;4968302;28;20038;-62
2021/12/20 01:00:11;;;;;;;3.13;1.20;;;4.60;95.80;;;;;;4973511;28;20077;-62
2021/12/20 01:02:37;;;;;;;4.72;2.17;;;4.50;95.80;;;;;;4970898;28;20047;-62
2021/12/20 01:05:04;;;;;;;4.28;1.75;;;4.60;95.90;;;;;;4973036;28;20041;-62
2021/12/20 01:07:30;;;;;;;4.00;1.50;;;4.60;95.80;;;;;;4972599;28;20612;-62
2021/12/20 01:09:59;;;;;;;6.15;1.58;;;4.50;95.70;;;;;;4972991;28;20501;-62
2021/12/20 01:12:28;;;;;;;2.25;1.08;;;4.50;95.80;;;;;;4972949;28;20073;-61
2021/12/20 01:14:59;;;;;;;5.20;1.50;;;4.50;95.90;;;;;;4953439;28;20113;-61
2021/12/20 01:17:24;;;;;;;4.55;1.45;;;4.50;95.90;;;;;;4963922;28;20027;-62
2021/12/20 01:19:50;;;;;;;6.40;1.70;;;4.50;95.90;;;;;;4965890;28;20574;-62
2021/12/20 01:22:16;;;;;;;3.45;1.60;;;4.50;95.90;;;;;;4971610;28;20047;-62
2021/12/20 01:24:41;;;;;;;7.03;2.08;;;4.50;95.90;;;;;;4971328;28;20031;-62
2021/12/20 01:27:07;;;;;;;6.55;1.40;;;4.40;95.70;;;;;;4955735;28;20063;-62
2021/12/20 01:29:32;;;;;;;2.65;1.38;;;4.40;95.90;;;;;;4967148;28;20061;-62
2021/12/20 01:31:58;;;;;;;3.53;1.40;;;4.40;95.90;;;;;;4972386;28;20034;-61
2021/12/20 01:34:23;;;;;;;4.13;1.63;;;4.30;95.80;;;;;;4970529;28;20037;-62
2021/12/20 01:36:49;;;;;;;6.75;1.45;;;4.30;95.90;;;;;;4971826;28;20101;-62
2021/12/20 01:39:14;;;;;;;5.55;1.70;;;4.30;95.90;;;;;;4972397;28;20019;-62
2021/12/20 01:41:42;;;;;;;2.65;1.45;;;4.40;96.00;;;;;;4969013;28;20422;-62
2021/12/20 01:44:08;;;;;;;5.03;1.65;;;4.40;95.90;;;;;;4954037;28;20058;-62
2021/12/20 01:46:34;;;;;;;3.40;1.90;;;4.30;95.80;;;;;;4972304;28;20054;-62
2021/12/20 01:49:02;;;;;;;4.57;1.40;;;4.20;95.80;;;;;;4972144;28;20366;-62
2021/12/20 01:51:51;;;;;;;5.35;1.40;;;4.20;96.00;;;;;;4968299;28;20062;-62
2021/12/20 01:54:17;;;;;;;4.82;1.58;;;4.10;96.00;;;;;;4956231;28;20062;-62
2021/12/20 01:56:44;;;;;;;6.07;1.23;;;4.10;96.20;;;;;;4958233;28;20085;-62
2021/12/20 01:59:11;;;;;;;6.65;1.33;;;4.10;96.20;;;;;;4956432;28;20030;-61
2021/12/20 02:01:37;;;;;;;3.08;1.20;;;4.20;96.00;;;;;;4972000;28;20051;-61
2021/12/20 02:04:07;;;;;;;2.20;1.20;;;4.10;96.10;;;;;;4972643;28;20373;-62
2021/12/20 02:09:02;;;;;;;4.20;1.55;;;4.20;96.20;;;;;;4970855;28;20118;-62
2021/12/20 02:11:28;;;;;;;7.78;1.50;;;4.20;96.10;;;;;;4970873;28;20037;-62
2021/12/20 02:13:54;;;;;;;6.68;1.50;;;4.20;96.10;;;;;;4972165;28;20034;-62
2021/12/20 02:16:21;;;;;;;3.33;1.33;;;4.20;96.00;;;;;;4971704;28;20027;-61
2021/12/20 02:18:46;;;;;;;5.10;2.38;;;4.10;96.10;;;;;;4972473;28;20359;-62
2021/12/20 02:21:12;;;;;;;3.90;1.40;;;4.20;96.10;;;;;;4971821;28;20054;-62
2021/12/20 02:23:37;;;;;;;6.63;1.45;;;4.20;96.10;;;;;;4969058;28;20026;-61
2021/12/20 02:26:05;;;;;;;4.50;1.60;;;4.20;96.10;;;;;;4972028;28;20049;-61
2021/12/20 02:28:36;;;;;;;4.20;1.38;;;4.10;96.10;;;;;;4971352;28;20030;-63
2021/12/20 02:39:11;;;;;;;4.55;1.67;;;4.10;96.20;;;;;;4969206;28;20086;-62
2021/12/20 02:41:36;;;;;;;3.53;1.58;;;4.10;96.40;;;;;;4970450;28;20062;-62
2021/12/20 02:44:05;;;;;;;3.55;1.27;;;4.10;96.10;;;;;;4972602;28;20022;-62
2021/12/20 02:49:12;;;;;;;5.43;1.50;;;4.00;96.10;;;;;;4971309;28;20437;-63
2021/12/20 02:51:38;;;;;;;3.97;1.00;;;4.00;96.10;;;;;;4971956;28;20023;-62
2021/12/20 02:54:06;;;;;;;5.13;1.20;;;4.00;96.10;;;;;;4971032;28;20109;-62
2021/12/20 02:56:31;;;;;;;8.82;1.58;;;4.00;96.20;;;;;;4969090;28;20035;-62
2021/12/20 02:58:57;;;;;;;4.15;1.50;;;4.00;96.20;;;;;;4967487;28;20034;-62
2021/12/20 03:01:23;;;;;;;6.03;1.80;;;4.00;96.20;;;;;;4973115;28;20070;-62
2021/12/20 03:03:52;;;;;;;2.67;1.25;;;3.90;96.20;;;;;;4973678;28;20118;-62
2021/12/20 03:06:23;;;;;;;3.08;1.25;;;3.90;96.40;;;;;;4975015;28;20026;-62
2021/12/20 03:08:51;;;;;;;3.63;1.40;;;3.90;96.30;;;;;;4976052;28;20031;-62
2021/12/20 03:11:17;;;;;;;2.88;1.30;;;3.80;96.30;;;;;;4973083;28;20038;-62
2021/12/20 03:13:47;;;;;;;6.22;1.63;;;3.90;96.40;;;;;;4976303;28;20034;-62
2021/12/20 03:16:13;;;;;;;3.85;1.20;;;3.90;96.30;;;;;;4968003;28;20042;-62
2021/12/20 03:18:38;;;;;;;3.95;1.58;;;3.90;96.40;;;;;;4976242;28;20129;-62
2021/12/20 03:21:03;;;;;;;4.80;1.52;;;3.90;96.40;;;;;;4974679;28;20035;-62
2021/12/20 03:23:29;;;;;;;5.38;1.52;;;3.90;96.40;;;;;;4967426;28;20031;-62
2021/12/20 03:25:55;;;;;;;5.63;1.58;;;3.90;96.40;;;;;;4972970;28;20026;-62
2021/12/20 03:28:21;;;;;;;3.85;1.30;;;3.90;96.40;;;;;;4968813;28;20414;-62
2021/12/20 03:30:46;;;;;;;6.45;1.80;;;3.90;96.40;;;;;;4970519;28;20038;-62
2021/12/20 03:33:12;;;;;;;6.78;2.22;;;3.90;96.40;;;;;;4973302;28;20169;-62
2021/12/20 03:35:38;;;;;;;4.68;1.52;;;3.90;96.40;;;;;;4969812;28;20595;-62
2021/12/20 03:38:04;;;;;;;4.85;1.83;;;4.00;96.40;;;;;;4971831;28;20057;-62
2021/12/20 03:40:29;;;;;;;4.45;1.70;;;4.00;96.40;;;;;;4970165;28;20032;-63
2021/12/20 03:42:55;;;;;;;4.47;1.40;;;3.90;96.30;;;;;;4963356;28;20057;-63
2021/12/20 03:45:21;;;;;;;8.57;1.65;;;3.90;96.60;;;;;;4973779;28;20031;-62
2021/12/20 03:47:46;;;;;;;4.97;1.38;;;3.90;96.40;;;;;;4975199;28;20732;-62
2021/12/20 03:50:14;;;;;;;4.32;1.30;;;3.90;96.40;;;;;;4973587;28;20126;-62
2021/12/20 03:52:40;;;;;;;5.38;1.48;;;3.90;96.50;;;;;;4974340;28;20477;-62
2021/12/20 03:55:08;;;;;;;6.70;1.30;;;4.00;96.40;;;;;;4974491;28;20042;-63
2021/12/20 03:57:33;;;;;;;9.40;1.58;;;3.90;96.50;;;;;;4974895;28;20062;-62
2021/12/20 03:59:59;;;;;;;4.22;1.63;;;3.90;96.40;;;;;;4971432;28;20077;-63
2021/12/20 04:02:25;;;;;;;8.20;1.67;;;3.90;96.50;;;;;;4975302;28;20039;-62
2021/12/20 04:04:51;;;;;;;6.00;1.80;;;3.80;96.50;;;;;;4972314;28;20062;-62
2021/12/20 04:07:17;;;;;;;6.50;1.60;;;3.80;96.60;;;;;;4955981;28;20066;-62
2021/12/20 04:09:42;;;;;;;3.30;1.50;;;3.80;96.70;;;;;;4967141;28;20019;-62
2021/12/20 04:12:09;;;;;;;4.43;1.40;;;3.80;96.70;;;;;;4975488;28;20078;-61
2021/12/20 04:14:34;;;;;;;5.68;1.65;;;3.80;96.70;;;;;;4972884;28;20106;-61
2021/12/20 04:17:00;;;;;;;6.32;1.88;;;3.90;96.70;;;;;;4973385;28;20126;-62
2021/12/20 04:19:25;;;;;;;5.30;1.60;;;3.80;96.70;;;;;;4971001;28;20146;-61
2021/12/20 04:21:51;;;;;;;6.70;1.38;;;3.80;96.70;;;;;;4974987;28;20050;-62
2021/12/20 04:24:16;;;;;;;6.60;1.58;;;3.80;96.80;;;;;;4954695;28;20119;-61
2021/12/20 04:26:42;;;;;;;4.82;1.50;;;3.80;96.90;;;;;;4975113;28;20038;-61
2021/12/20 04:29:07;;;;;;;3.95;1.40;;;3.80;96.90;;;;;;4972122;28;20462;-61
2021/12/20 04:31:35;;;;;;;2.38;1.33;;;3.80;96.90;;;;;;4971406;28;20109;-61
2021/12/20 04:34:01;;;;;;;7.90;1.67;;;3.80;96.90;;;;;;4973077;28;20105;-61
2021/12/20 04:36:28;;;;;;;6.88;1.83;;;3.80;96.90;;;;;;4974379;28;20478;-61
2021/12/20 04:38:54;;;;;;;3.60;1.60;;;3.70;96.90;;;;;;4974509;28;20078;-62
2021/12/20 04:41:19;;;;;;;3.90;1.52;;;3.70;97.10;;;;;;4972104;28;20059;-62
2021/12/20 04:43:45;;;;;;;9.23;1.67;;;3.70;97.00;;;;;;4973203;28;20482;-62
2021/12/20 04:46:10;;;;;;;5.32;1.75;;;3.70;97.10;;;;;;4965692;28;20079;-62
2021/12/20 04:48:36;;;;;;;4.15;1.45;;;3.60;97.20;;;;;;4971899;28;20054;-62
2021/12/20 04:51:01;;;;;;;5.55;1.70;;;3.70;97.40;;;;;;4972976;28;20553;-62
2021/12/20 04:53:26;;;;;;;5.25;1.60;;;3.70;97.20;;;;;;4973273;28;20034;-62
2021/12/20 04:55:52;;;;;;;4.72;2.20;;;3.70;97.20;;;;;;4971401;28;20037;-62
2021/12/20 04:58:18;;;;;;;6.85;3.05;;;3.70;97.20;;;;;;4973980;28;20031;-62
2021/12/20 05:00:44;;;;;;;4.55;1.60;;;3.60;97.20;;;;;;4972702;28;20058;-61
2021/12/20 05:03:09;;;;;;;6.60;1.80;;;3.60;97.20;;;;;;4967514;28;20069;-62
2021/12/20 05:05:36;;;;;;;7.32;1.48;;;3.70;97.30;;;;;;4971926;28;20478;-62
2021/12/20 05:08:03;;;;;;;5.47;1.73;;;3.70;97.30;;;;;;4973994;28;20034;-62
2021/12/20 05:10:32;;;;;;;7.88;1.65;;;3.70;97.30;;;;;;4973256;28;20031;-62
2021/12/20 05:13:01;;;;;;;3.22;1.42;;;3.80;97.30;;;;;;4973271;28;20086;-62
2021/12/20 05:15:27;;;;;;;4.88;1.73;;;3.80;97.30;;;;;;4972904;28;20117;-62
2021/12/20 05:17:53;;;;;;;8.50;1.67;;;3.70;97.30;;;;;;4971684;28;20154;-62
2021/12/20 05:20:18;;;;;;;4.97;1.52;;;3.80;97.30;;;;;;4970147;28;20110;-62
2021/12/20 05:22:44;;;;;;;5.93;1.77;;;3.70;97.30;;;;;;4973959;28;20137;-61
2021/12/20 05:25:11;;;;;;;4.68;2.55;;;3.80;97.30;;;;;;4972898;28;20038;-63
2021/12/20 05:27:36;;;;;;;4.63;1.55;;;3.70;97.30;;;;;;4973382;28;20039;-63
2021/12/20 05:30:04;;;;;;;17.02;2.33;;;3.70;97.40;;;;;;4972086;28;20040;-64
2021/12/20 05:32:30;;;;;;;7.00;1.60;;;3.70;97.40;;;;;;4968253;28;20037;-63
2021/12/20 05:34:55;;;;;;;5.05;1.75;;;3.60;97.50;;;;;;4969815;28;20109;-63
2021/12/20 05:37:21;;;;;;;5.45;1.95;;;3.70;97.50;;;;;;4972098;28;20380;-64
2021/12/20 05:39:46;;;;;;;10.30;2.83;;;3.70;97.60;;;;;;4973764;28;20030;-65
2021/12/20 05:42:12;;;;;;;4.80;2.33;;;3.60;97.60;;;;;;4973072;28;20066;-65
2021/12/20 05:44:37;;;;;;;5.90;1.80;;;3.60;97.60;;;;;;4960770;28;20114;-65
2021/12/20 05:47:04;;;;;;;7.82;1.98;;;3.60;97.60;;;;;;4968237;28;20397;-65
2021/12/20 05:49:31;;;;;;;6.97;1.92;;;3.60;97.70;;;;;;4971397;28;20031;-65
2021/12/20 05:51:58;;;;;;;10.77;3.10;;;3.60;97.70;;;;;;4970467;28;20049;-66
2021/12/20 05:54:23;;;;;;;5.25;2.50;;;3.70;97.70;;;;;;4971823;28;20433;-66
2021/12/20 05:56:49;;;;;;;4.95;1.90;;;3.60;97.70;;;;;;4970502;28;20019;-64
2021/12/20 05:59:14;;;;;;;8.10;2.00;;;3.60;97.70;;;;;;4963298;28;20039;-64
2021/12/20 06:01:40;;;;;;;6.18;2.22;;;3.60;97.90;;;;;;4970222;28;20397;-65
2021/12/20 06:04:05;;;;;;;11.68;3.72;;;3.60;98.00;;;;;;4970325;28;20034;-65
2021/12/20 06:06:32;;;;;;;11.88;2.17;;;3.60;97.90;;;;;;4964485;28;20109;-65
2021/12/20 06:08:58;;;;;;;8.73;2.47;;;3.60;97.90;;;;;;4972969;28;20050;-65
2021/12/20 06:11:24;;;;;;;7.10;2.35;;;3.60;98.00;;;;;;4973399;28;20026;-65
2021/12/20 06:13:50;;;;;;;7.18;2.30;;;3.60;98.00;;;;;;4969233;28;20411;-65
2021/12/20 06:16:16;;;;;;;9.30;2.65;;;3.60;98.00;;;;;;4956862;28;20157;-65
2021/12/20 06:18:41;;;;;;;6.65;2.50;;;3.60;98.00;;;;;;4956153;28;20153;-64
2021/12/20 06:21:07;;;;;;;7.22;2.38;;;3.60;98.00;;;;;;4961488;28;20026;-65
2021/12/20 06:23:33;;;;;;;15.20;2.72;;;3.70;98.00;;;;;;4962519;28;20033;-64
2021/12/20 06:25:58;;;;;;;6.53;2.47;;;3.70;98.00;;;;;;4971357;28;20134;-64
2021/12/20 06:28:24;;;;;;;9.98;2.50;;;3.70;98.00;;;;;;4970452;28;20375;-66
2021/12/20 06:30:50;;;;;;;10.40;3.65;;;3.80;98.00;;;;;;4963318;28;20029;-65
2021/12/20 06:33:15;;;;;;;7.68;2.13;;;3.80;98.00;;;;;;4969610;28;20034;-64
2021/12/20 06:35:41;;;;;;;7.53;2.47;;;3.70;97.90;;;;;;4970444;28;20026;-64
2021/12/20 06:38:08;;;;;;;6.15;2.80;;;3.80;97.90;;;;;;4971104;28;20046;-63
2021/12/20 06:40:35;;;;;;;8.02;2.22;;;3.70;97.90;;;;;;4969743;28;20109;-62
2021/12/20 06:43:01;;;;;;;5.43;2.50;;;3.80;97.90;;;;;;4968541;28;20679;-66
2021/12/20 06:45:30;;;;;;;10.23;2.42;;;3.70;98.00;;;;;;4968110;28;20037;-65
2021/12/20 06:47:57;;;;;;;5.82;2.33;;;3.70;98.00;;;;;;4965364;28;20035;-65
2021/12/20 06:50:23;;;;;;;8.38;2.53;;;3.70;98.00;;;;;;4970192;28;20054;-64
2021/12/20 06:52:48;;;;;;;6.22;2.33;;;3.70;98.00;;;;;;4967102;28;20031;-64
2021/12/20 06:55:14;;;;;;;6.72;2.38;;;3.70;98.00;;;;;;4966340;28;20039;-65
2021/12/20 06:57:40;;;;;;;8.95;2.50;;;3.70;98.00;;;;;;4966205;28;20478;-64
2021/12/20 07:00:06;;;;;;;7.47;2.08;;;3.80;98.00;;;;;;4968309;28;20379;-65
2021/12/20 07:02:32;;;;;;;6.20;2.20;;;3.80;98.00;;;;;;4969285;28;20278;-65
2021/12/20 07:04:57;;;;;;;10.40;2.40;;;3.80;98.00;;;;;;4965675;28;20089;-65
2021/12/20 07:07:23;;;;;;;8.38;3.33;;;3.80;97.90;;;;;;4963774;28;20031;-65
2021/12/20 07:09:48;;;;;;;6.53;2.38;;;3.80;97.90;;;;;;4959884;28;20022;-66
2021/12/20 07:12:14;;;;;;;8.10;2.75;;;3.90;97.90;;;;;;4960363;28;20034;-66
2021/12/20 07:14:40;;;;;;;5.00;1.63;;;3.80;97.80;;;;;;4956731;28;20022;-66
2021/12/20 07:17:06;;;;;;;7.47;2.58;;;3.80;97.80;;;;;;4971044;28;20042;-66
2021/12/20 07:19:31;;;;;;;6.40;2.38;;;3.90;97.80;;;;;;4966858;28;20054;-66
2021/12/20 07:21:57;;;;;;;6.30;2.40;;;3.90;97.70;;;;;;4964950;28;20126;-66
2021/12/20 07:24:22;;;;;;;7.68;3.10;;;3.90;97.80;;;;;;4966321;28;20023;-66
2021/12/20 07:26:48;;;;;;;11.27;3.15;;;3.90;97.80;;;;;;4958957;28;20018;-66
2021/12/20 07:29:17;;;;;;;5.55;2.53;;;3.90;97.80;;;;;;4967953;28;20027;-66
2021/12/20 07:31:43;;;;;;;9.32;3.30;;;3.90;97.80;;;;;;4964513;28;20382;-66
2021/12/20 07:34:10;;;;;;;10.35;2.80;;;3.90;97.80;;;;;;4952963;28;20024;-66
2021/12/20 07:36:36;;;;;;;8.18;3.20;;;4.00;97.80;;;;;;4960857;28;20059;-66
2021/12/20 07:39:02;;;;;;;9.25;3.40;;;4.00;97.80;;;;;;4951418;28;20050;-66
2021/12/20 07:41:27;;;;;;;8.98;3.22;;;4.00;97.80;;;;;;4963295;28;20090;-66
2021/12/20 07:43:53;;;;;;;10.98;5.03;;;4.00;97.70;;;;;;4962597;28;20061;-66
2021/12/20 07:46:19;;;;;;;9.40;2.88;;;4.00;97.70;;;;;;4963589;28;20389;-66
2021/12/20 07:48:47;;;;;;;11.07;3.72;;;4.10;97.70;;;;;;4956070;28;20435;-66
2021/12/20 07:51:12;;;;;;;9.68;3.78;;;4.10;97.70;;;;;;4960828;28;20066;-66
2021/12/20 07:53:38;;;;;;;7.05;2.53;;;4.10;97.70;;;;;;4972719;28;20035;-66
2021/12/20 07:56:04;;;;;;;12.98;3.28;;;4.00;97.70;;;;;;4971450;28;20022;-66
2021/12/20 07:58:31;;;;;;;12.13;2.75;;;4.00;97.70;;;;;;4971163;28;20046;-66
2021/12/20 08:00:58;;;;;;;6.30;2.38;;;4.00;97.80;;;;;;4970658;28;20050;-66
2021/12/20 08:03:23;;;;;;;10.52;2.65;;;4.00;97.80;;;;;;4969437;28;20101;-66
2021/12/20 08:05:49;;;;;;;10.45;3.88;;;4.10;97.80;;;;;;4972712;28;20444;-66
2021/12/20 08:08:14;;;;;;;10.10;2.88;;;4.10;97.80;;;;;;4971679;28;20041;-67
2021/12/20 08:10:40;;;;;;;7.00;2.85;;;4.10;97.80;;;;;;4962810;28;20130;-66
2021/12/20 08:13:07;;;;;;;7.40;2.88;;;4.10;97.90;;;;;;4955206;29;20084;-66
2021/12/20 08:15:32;;;;;;;8.70;3.13;;;4.10;98.00;;;;;;4967180;28;20069;-66
2021/12/20 08:17:58;;;;;;;5.55;2.33;;;4.10;97.90;;;;;;4974860;28;20034;-66
2021/12/20 08:20:24;;;;;;;11.25;2.95;;;4.20;98.00;;;;;;4973576;28;20019;-66
2021/12/20 08:22:49;;;;;;;10.27;2.80;;;4.20;97.90;;;;;;4974756;28;20077;-66
2021/12/20 08:25:16;;;;;;;8.00;3.05;;;4.30;97.90;;;;;;4973285;28;20033;-67
2021/12/20 08:27:42;;;;;;;6.97;2.92;;;4.30;97.90;;;;;;4974848;28;20481;-66
2021/12/20 08:30:08;;;;;;;8.75;3.05;;;4.30;97.80;;;;;;4973366;28;20025;-66
2021/12/20 08:32:36;;;;;;;7.40;3.13;;;4.30;97.80;;;;;;4974804;28;20440;-66
2021/12/20 08:35:07;;;;;;;8.98;4.20;;;4.30;97.70;;;;;;4969375;28;20109;-67
2021/12/20 08:37:32;;;;;;;6.47;2.97;;;4.30;97.70;;;;;;4957791;28;20031;-65
2021/12/20 08:39:58;;;;;;;9.05;3.38;;;4.30;97.70;;;;;;4972981;28;20085;-66
2021/12/20 08:42:23;;;;;;;11.13;3.25;;;4.30;97.70;;;;;;4974647;28;20386;-66
2021/12/20 08:44:49;;;;;;;12.32;4.47;;;4.40;97.70;;;;;;4973228;28;20110;-66
2021/12/20 08:47:15;;;;;;;9.73;3.40;;;4.30;97.60;;;;;;4973008;28;20498;-67
2021/12/20 08:49:41;;;;;;;12.25;3.65;;;4.30;97.70;;;;;;4973346;28;20502;-66
2021/12/20 08:52:07;;;;;;;8.88;3.05;;;4.40;97.70;;;;;;4974249;28;20034;-66
2021/12/20 08:54:33;;;;;;;7.57;3.00;;;4.40;97.60;;;;;;4971829;28;20026;-66
2021/12/20 08:56:59;;;;;;;8.70;3.25;;;4.30;97.60;;;;;;4974096;28;20023;-66
2021/12/20 08:59:24;;;;;;;11.30;3.85;;;4.40;97.60;;;;;;4973508;28;20015;-66
2021/12/20 09:01:50;;;;;;;6.72;2.90;;;4.40;97.70;;;;;;4966409;28;20044;-66
2021/12/20 09:04:17;;;;;;;8.10;3.38;;;4.40;97.70;;;;;;4955627;28;20035;-66
2021/12/20 09:06:43;;;;;;;9.00;3.15;;;4.40;97.60;;;;;;4954746;28;20497;-66
2021/12/20 09:09:11;;;;;;;9.25;3.30;;;4.40;97.70;;;;;;4954549;28;20031;-66
2021/12/20 09:11:37;;;;;;;9.45;3.08;;;4.40;97.70;;;;;;4958205;28;20066;-66
2021/12/20 09:14:03;;;;;;;8.38;2.63;;;4.40;97.60;;;;;;4952856;28;20449;-66
2021/12/20 09:16:29;;;;;;;9.35;2.78;;;4.40;97.70;;;;;;4973468;28;20537;-66
2021/12/20 09:18:54;;;;;;;6.63;3.88;;;4.40;97.60;;;;;;4973814;28;20030;-66
2021/12/20 09:21:20;;;;;;;10.95;3.22;;;4.40;97.50;;;;;;4972370;28;20039;-66
2021/12/20 09:23:46;;;;;;;9.77;3.67;;;4.40;97.70;;;;;;4972533;28;20051;-66
2021/12/20 09:26:12;;;;;;;7.00;2.97;;;4.40;97.70;;;;;;4972589;28;20031;-66
2021/12/20 09:28:37;;;;;;;6.65;2.72;;;4.40;97.60;;;;;;4973859;28;20118;-67
2021/12/20 09:31:04;;;;;;;6.70;3.15;;;4.40;97.70;;;;;;4972183;28;20113;-66
2021/12/20 09:33:29;;;;;;;8.93;2.67;;;4.40;97.60;;;;;;4973674;28;20470;-66
2021/12/20 09:35:55;;;;;;;11.23;3.13;;;4.40;97.60;;;;;;4972190;28;20035;-66
2021/12/20 09:38:21;;;;;;;6.25;2.55;;;4.40;97.70;;;;;;4972284;28;20517;-66
2021/12/20 09:42:00;;;;;;;7.43;2.70;;;4.50;97.70;;;;;;4960247;28;20019;-67
2021/12/20 09:43:52;;;;;;;8.23;3.15;;;4.50;97.80;;;;;;4951092;29;20047;-66
2021/12/20 09:46:18;;;;;;;6.75;2.58;;;4.60;97.70;;;;;;4971483;28;20038;-66
2021/12/20 09:48:49;;;;;;;8.00;2.90;;;4.60;97.70;;;;;;4973176;28;20031;-66
2021/12/20 09:51:16;;;;;;;7.50;3.22;;;4.50;97.60;;;;;;4972318;28;20450;-66
2021/12/20 09:53:41;;;;;;;10.43;2.88;;;4.60;97.60;;;;;;4973367;28;20035;-66
2021/12/20 09:56:08;;;;;;;3.88;2.40;;;4.70;97.60;;;;;;4971043;28;20041;-66
2021/12/20 09:58:36;;;;;;;8.73;2.83;;;4.70;97.70;;;;;;4973293;28;20096;-66
2021/12/20 10:01:04;;;;;;;8.52;3.33;;;4.70;97.40;;;;;;4968809;28;20054;-66
2021/12/20 10:03:30;;;;;;;6.00;2.80;;;4.70;97.50;;;;;;4970352;28;20042;-66
2021/12/20 10:05:57;;;;;;;9.65;3.38;;;4.70;97.60;;;;;;4969988;28;20540;-66
2021/12/20 10:08:31;;;;;;;4.75;2.45;;;4.80;97.60;;;;;;4972240;28;20428;-66
2021/12/20 10:10:59;;;;;;;6.30;3.20;;;4.80;97.50;;;;;;4954236;28;20039;-66
2021/12/20 10:13:32;;;;;;;8.65;2.70;;;4.90;97.50;;;;;;4953857;28;20041;-66
2021/12/20 10:15:59;;;;;;;5.70;2.88;;;4.90;97.50;;;;;;4968399;28;20061;-65
2021/12/20 10:18:26;;;;;;;9.85;3.08;;;4.90;97.50;;;;;;4972917;28;20439;-66
2021/12/20 10:20:59;;;;;;;5.68;2.67;;;4.90;97.40;;;;;;4970577;28;20038;-66
2021/12/20 10:23:31;;;;;;;8.40;2.75;;;5.00;97.50;;;;;;4969941;28;20046;-66
2021/12/20 10:26:02;;;;;;;8.27;2.90;;;5.10;97.50;;;;;;4968188;28;20031;-66
2021/12/20 10:28:35;;;;;;;5.75;2.88;;;5.10;97.50;;;;;;4972182;28;20026;-66
2021/12/20 10:31:13;;;;;;;5.43;2.60;;;5.20;97.40;;;;;;4964025;28;20074;-66
2021/12/20 10:33:40;;;;;;;6.82;2.72;;;5.30;97.40;;;;;;4963838;28;20034;-66
2021/12/20 10:36:10;;;;;;;7.57;2.50;;;5.30;97.30;;;;;;4968951;28;20045;-66
2021/12/20 10:38:41;;;;;;;7.70;2.00;;;5.30;96.80;;;;;;4969081;28;20041;-66
2021/12/20 10:41:11;;;;;;;7.22;2.30;;;5.30;97.00;;;;;;4967108;28;20067;-66
2021/12/20 10:43:50;;;;;;;7.18;2.80;;;5.30;97.10;;;;;;4958989;28;20039;-67
2021/12/20 10:46:26;;;;;;;5.88;2.60;;;5.40;97.00;;;;;;4979271;28;20045;-67
2021/12/20 10:48:58;;;;;;;6.72;2.53;;;5.40;97.00;;;;;;4966847;28;20031;-67
2021/12/20 10:51:27;;;;;;;10.60;2.72;;;5.30;97.00;;;;;;4963022;28;20039;-67
2021/12/20 10:54:01;;;;;;;6.47;2.13;;;5.40;96.90;;;;;;4971905;28;20035;-67
2021/12/20 10:56:33;;;;;;;8.35;3.05;;;5.40;97.00;;;;;;4972082;28;20033;-67
2021/12/20 10:59:04;;;;;;;7.05;3.13;;;5.40;96.70;;;;;;4971551;28;20029;-67
2021/12/20 11:02:03;;;;;;;4.07;2.78;;;5.40;96.90;;;;;;4968040;28;20042;-65
2021/12/20 11:04:27;;;;;;;9.05;2.67;;;5.40;96.80;;;;;;4964743;28;20041;-66
2021/12/20 11:09:04;;;;;;;5.80;2.35;;;5.50;96.80;;;;;;4965473;28;20034;-66
2021/12/20 11:09:47;;;;;;;7.97;3.47;;;5.50;96.80;;;;;;4968538;28;20066;-66
2021/12/20 11:12:25;;;;;;;5.30;2.33;;;5.50;96.70;;;;;;4970554;28;20043;-66
2021/12/20 11:14:53;;;;;;;8.75;2.30;;;5.50;96.80;;;;;;4967694;28;20065;-66
2021/12/20 11:17:22;;;;;;;5.57;2.60;;;5.50;96.80;;;;;;4964204;28;20047;-67
2021/12/20 11:19:50;;;;;;;4.68;2.03;;;5.60;96.60;;;;;;4968425;28;20482;-67
2021/12/20 11:22:24;;;;;;;5.75;2.75;;;5.60;96.60;;;;;;4972150;28;20118;-66
2021/12/20 11:25:03;;;;;;;5.07;2.20;;;5.50;96.50;;;;;;4974691;28;20042;-66
2021/12/20 11:27:34;;;;;;;7.47;2.72;;;5.50;96.60;;;;;;4957789;28;20035;-66
2021/12/20 11:30:06;;;;;;;7.70;2.22;;;5.60;96.70;;;;;;4977740;28;20046;-65
2021/12/20 11:32:31;;;;;;;5.75;2.88;;;5.60;96.60;;;;;;4956053;28;20070;-66
2021/12/20 11:34:57;;;;;;;8.55;3.28;;;5.60;96.70;;;;;;4964727;28;20073;-66
2021/12/20 11:37:25;;;;;;;8.60;3.00;;;5.60;96.60;;;;;;4961901;28;20438;-65
2021/12/20 11:39:52;;;;;;;8.65;2.63;;;5.60;96.50;;;;;;4964214;28;20050;-65
2021/12/20 11:42:18;;;;;;;7.10;2.72;;;5.70;96.50;;;;;;4974572;28;21025;-66
2021/12/20 11:44:52;;;;;;;6.93;2.88;;;5.70;96.60;;;;;;4964319;28;20029;-66
2021/12/20 11:47:50;;;;;;;8.80;2.67;;;5.80;96.50;;;;;;4973503;28;20042;-66
2021/12/20 11:50:19;;;;;;;6.13;2.40;;;5.80;96.60;;;;;;4968993;28;20121;-66
2021/12/20 11:52:47;;;;;;;5.07;2.50;;;5.80;96.60;;;;;;4973004;28;20027;-67
2021/12/20 11:55:19;;;;;;;7.13;2.75;;;5.90;96.60;;;;;;4971254;28;20030;-66
2021/12/20 11:57:48;;;;;;;8.70;2.70;;;5.90;96.50;;;;;;4973635;28;20494;-66
2021/12/20 12:00:19;;;;;;;7.35;2.40;;;6.00;96.50;;;;;;4963018;28;20106;-67
2021/12/20 12:02:46;;;;;;;4.72;2.35;;;6.00;96.50;;;;;;4967369;28;20038;-67
2021/12/20 12:05:27;;;;;;;6.22;2.78;;;6.00;96.40;;;;;;4965139;28;20038;-65
2021/12/20 12:07:52;;;;;;;7.07;2.40;;;6.00;96.30;;;;;;4974053;28;20031;-66
2021/12/20 12:10:27;;;;;;;8.73;2.40;;;6.00;96.30;;;;;;4971462;28;20031;-65
2021/12/20 12:13:00;;;;;;;3.65;2.00;;;6.00;96.20;;;;;;4973146;28;20031;-65
2021/12/20 12:15:42;;;;;;;5.95;2.70;;;6.10;96.30;;;;;;4956265;28;20062;-65
2021/12/20 12:18:10;;;;;;;7.25;2.38;;;6.10;96.30;;;;;;4974003;28;20426;-64
2021/12/20 12:20:44;;;;;;;7.43;2.60;;;6.10;96.30;;;;;;4974298;28;20030;-65
2021/12/20 12:23:16;;;;;;;5.18;2.53;;;6.20;96.30;;;;;;4967628;28;20043;-64
2021/12/20 12:26:00;;;;;;;8.23;3.03;;;6.20;96.20;;;;;;4968537;28;20041;-65
2021/12/20 12:28:45;;;;;;;7.25;2.78;;;6.30;96.20;;;;;;4974500;28;20066;-65
2021/12/20 12:31:11;;;;;;;11.15;3.05;;;6.20;96.00;;;;;;4976104;28;20028;-65
2021/12/20 12:33:40;;;;;;;8.23;2.72;;;6.30;96.10;;;;;;4971526;28;20533;-64
2021/12/20 12:36:22;;;;;;;8.90;2.60;;;6.30;95.90;;;;;;4974529;28;20027;-65
2021/12/20 12:38:47;;;;;;;6.55;2.22;;;6.30;96.10;;;;;;4974907;28;20031;-65
2021/12/20 12:41:19;;;;;;;5.25;2.10;;;6.30;96.00;;;;;;4971418;28;20031;-65
2021/12/20 12:43:52;;;;;;;6.45;2.50;;;6.30;96.10;;;;;;4964449;28;20043;-64
2021/12/20 12:46:41;;;;;;;5.13;2.10;;;6.40;96.10;;;;;;4970985;28;20062;-64
2021/12/20 12:49:22;;;;;;;6.03;2.58;;;6.40;96.10;;;;;;4965367;28;20110;-64
2021/12/20 12:52:00;;;;;;;7.85;3.38;;;6.50;96.00;;;;;;4955138;28;20456;-65
2021/12/20 12:54:32;;;;;;;5.68;3.00;;;6.50;95.90;;;;;;4968829;28;20022;-64
2021/12/20 12:57:10;;;;;;;5.82;2.45;;;6.60;95.90;;;;;;4962634;28;20382;-65
2021/12/20 12:59:47;;;;;;;6.07;2.38;;;6.60;95.80;;;;;;4971388;28;20027;-65
2021/12/20 13:02:24;;;;;;;6.70;2.70;;;6.60;95.90;;;;;;4962011;28;20387;-65
2021/12/20 13:04:51;;;;;;;7.13;1.92;;;6.60;95.70;;;;;;4965545;28;20042;-65
2021/12/20 13:07:25;;;;;;;11.80;2.45;;;6.60;95.70;;;;;;4966006;28;20378;-65
2021/12/20 13:09:52;;;;;;;5.95;2.10;;;6.60;95.70;;;;;;4965286;28;20105;-64
2021/12/20 13:13:06;;;;;;;7.65;2.22;;;6.60;95.70;;;;;;4972143;28;20413;-64